createdAt,value
2018-03-11T00:03:49.408Z,15.57
2018-03-11T00:08:53.880Z,14.60
2018-03-11T00:13:58.356Z,13.53
2018-03-11T00:19:02.797Z,13.03
2018-03-11T00:24:06.674Z,14.77
2018-03-11T00:29:10.529Z,15.63
2018-03-11T00:34:13.655Z,17.63
2018-03-11T00:39:18.118Z,17.63
2018-03-11T00:44:21.227Z,18.87
2018-03-11T00:49:24.736Z,18.13
2018-03-11T00:54:29.348Z,19.57
2018-03-11T00:59:32.835Z,20.73
2018-03-11T01:04:37.295Z,21.50
2018-03-11T01:09:41.915Z,23.93
2018-03-11T01:14:46.389Z,22.83
2018-03-11T01:19:49.485Z,24.07
2018-03-11T01:24:52.601Z,27.77
2018-03-11T01:29:55.696Z,24.87
2018-03-11T01:34:58.850Z,27.13
2018-03-11T01:40:01.936Z,26.67
2018-03-11T01:45:05.033Z,27.67
2018-03-11T01:50:08.120Z,28.27
2018-03-11T01:55:12.580Z,26.43
2018-03-11T02:00:15.677Z,26.63
2018-03-11T02:05:18.815Z,25.37
2018-03-11T02:10:22.320Z,23.83
2018-03-11T02:15:25.401Z,23.87
2018-03-11T02:20:28.989Z,25.02
2018-03-11T02:25:32.121Z,24.50
2018-03-11T02:30:35.206Z,26.50
2018-03-11T02:35:39.117Z,25.87
2018-03-11T02:40:42.255Z,24.77
2018-03-11T02:45:45.789Z,26.13
2018-03-11T02:50:50.287Z,28.27
2018-03-11T02:55:53.443Z,28.25
2018-03-11T03:00:57.340Z,31.50
2018-03-11T03:06:01.955Z,29.17
2018-03-11T03:11:05.818Z,31.10
2018-03-11T03:16:09.674Z,33.50
2018-03-11T03:21:14.499Z,32.40
2018-03-11T03:26:17.648Z,32.40
2018-03-11T03:31:20.733Z,29.67
2018-03-11T03:36:23.832Z,30.40
2018-03-11T03:41:27.703Z,33.67
2018-03-11T03:46:31.189Z,31.23
2018-03-11T03:51:34.290Z,33.07
2018-03-11T03:56:37.524Z,31.83
2018-03-11T04:01:41.979Z,32.10
2018-03-11T04:06:46.268Z,34.37
2018-03-11T04:11:49.384Z,36.00
2018-03-11T04:16:53.243Z,32.70
2018-03-11T04:21:56.751Z,30.75
2018-03-11T04:27:00.672Z,31.17
2018-03-11T04:32:04.509Z,33.30
2018-03-11T04:37:08.389Z,30.93
2018-03-11T04:42:12.997Z,29.73
2018-03-11T04:47:16.929Z,29.40
2018-03-11T04:52:20.808Z,30.13
2018-03-11T04:57:25.256Z,27.67
2018-03-11T05:02:29.707Z,28.70
2018-03-11T05:07:33.640Z,27.67
2018-03-11T05:12:36.761Z,30.50
2018-03-11T05:17:41.363Z,27.83
2018-03-11T05:22:44.453Z,28.77
2018-03-11T05:27:48.308Z,28.33
2018-03-11T05:32:51.451Z,30.52
2018-03-11T05:37:54.549Z,29.80
2018-03-11T05:42:59.018Z,29.10
2018-03-11T05:48:03.608Z,27.60
2018-03-11T05:53:06.768Z,29.90
2018-03-11T05:58:11.280Z,28.13
2018-03-11T06:03:15.809Z,27.37
2018-03-11T06:08:20.100Z,28.93
2018-03-11T06:13:23.286Z,29.80
2018-03-11T06:18:27.805Z,29.50
2018-03-11T06:23:32.413Z,31.30
2018-03-11T06:28:35.935Z,30.00
2018-03-11T06:33:41.553Z,32.00
2018-03-11T06:38:45.437Z,29.10
2018-03-11T06:43:49.876Z,28.63
2018-03-11T06:48:52.980Z,24.47
2018-03-11T06:53:56.087Z,23.13
2018-03-11T06:58:59.972Z,21.43
2018-03-11T07:04:03.087Z,19.30
2018-03-11T07:09:06.196Z,17.10
2018-03-11T07:14:09.304Z,16.47
2018-03-11T07:19:13.927Z,17.60
2018-03-11T07:24:17.446Z,17.43
2018-03-11T07:29:20.965Z,17.62
2018-03-11T07:34:25.195Z,19.93
2018-03-11T07:39:29.655Z,15.90
2018-03-11T07:44:34.864Z,16.03
2018-03-11T07:49:38.716Z,15.60
2018-03-11T07:54:42.220Z,15.93
2018-03-11T07:59:46.081Z,13.97
2018-03-11T08:04:50.698Z,14.73
2018-03-11T08:09:55.147Z,13.50
2018-03-11T08:14:58.263Z,11.90
2018-03-11T08:20:01.744Z,10.80
2018-03-11T08:25:05.241Z,11.50
2018-03-11T08:30:08.348Z,12.53
2018-03-11T08:35:11.515Z,11.97
2018-03-11T08:40:15.400Z,11.67
2018-03-11T08:45:18.543Z,13.03
2018-03-11T08:50:23.025Z,11.50
2018-03-11T08:55:26.129Z,10.90
2018-03-11T09:00:29.211Z,10.97
2018-03-11T09:05:33.069Z,11.20
2018-03-11T09:10:37.513Z,8.57
2018-03-11T09:15:41.377Z,8.53
2018-03-11T09:20:44.870Z,9.47
2018-03-11T09:25:49.472Z,8.00
2018-03-11T09:30:53.928Z,4.20
2018-03-11T09:35:57.029Z,3.87
2018-03-11T09:41:02.824Z,4.17
2018-03-11T09:46:05.979Z,3.40
2018-03-11T09:51:09.417Z,3.27
2018-03-11T09:56:12.513Z,5.90
2018-03-11T10:01:15.610Z,3.70
2018-03-11T10:06:19.478Z,3.65
2018-03-11T10:11:22.577Z,3.43
2018-03-11T10:16:27.012Z,3.70
2018-03-11T10:21:31.459Z,5.93
2018-03-11T10:26:34.557Z,5.30
2018-03-11T10:31:37.652Z,7.27
2018-03-11T10:36:41.525Z,2.90
2018-03-11T10:41:45.018Z,2.87
2018-03-11T10:46:48.537Z,2.35
2018-03-11T10:51:51.632Z,2.20
2018-03-11T10:56:54.730Z,1.90
2018-03-11T11:02:01.813Z,2.23
2018-03-11T11:07:04.917Z,2.07
2018-03-11T11:12:09.356Z,1.83
2018-03-11T11:17:12.844Z,1.93
2018-03-11T11:22:17.056Z,2.23
2018-03-11T11:27:21.492Z,2.50
2018-03-11T11:32:25.947Z,1.77
2018-03-11T11:37:29.488Z,3.10
2018-03-11T11:42:32.528Z,2.00
2018-03-11T11:47:36.971Z,1.83
2018-03-11T11:52:40.869Z,1.43
2018-03-11T11:57:43.969Z,1.90
2018-03-11T12:02:48.191Z,1.60
2018-03-11T12:07:52.621Z,2.07
2018-03-11T12:12:56.105Z,2.13
2018-03-11T12:17:59.184Z,2.10
2018-03-11T12:23:03.032Z,2.90
2018-03-11T12:28:06.532Z,1.97
2018-03-11T12:33:11.723Z,1.87
2018-03-11T12:38:16.186Z,1.80
2018-03-11T12:43:20.120Z,2.43
2018-03-11T12:48:24.324Z,2.27
2018-03-11T12:53:28.764Z,1.60
2018-03-11T12:58:32.272Z,1.70
2018-03-11T13:03:35.378Z,1.53
2018-03-11T13:08:39.232Z,1.70
2018-03-11T13:13:42.780Z,1.50
2018-03-11T13:18:45.861Z,1.83
2018-03-11T13:23:49.336Z,1.77
2018-03-11T13:28:52.429Z,2.00
2018-03-11T13:39:57.872Z,2.33
2018-03-11T13:45:14.068Z,1.73
2018-03-11T13:50:17.536Z,1.90
2018-03-11T13:55:21.376Z,2.10
2018-03-11T14:00:24.637Z,2.07
2018-03-11T14:05:28.041Z,1.80
2018-03-11T14:10:31.509Z,2.20
2018-03-11T14:15:34.579Z,1.90
2018-03-11T14:20:38.052Z,1.83
2018-03-11T14:25:42.659Z,3.07
2018-03-11T14:30:46.123Z,1.90
2018-03-11T14:35:50.719Z,2.30
2018-03-11T14:40:54.608Z,2.45
2018-03-11T14:45:58.444Z,2.47
2018-03-11T14:51:02.883Z,2.83
2018-03-11T14:56:05.965Z,2.63
2018-03-11T15:01:09.821Z,3.50
2018-03-11T15:06:14.243Z,2.17
2018-03-11T15:11:18.468Z,2.70
2018-03-11T15:16:21.943Z,2.40
2018-03-11T15:21:25.800Z,2.53
2018-03-11T15:26:29.287Z,2.50
2018-03-11T15:31:32.380Z,2.50
2018-03-11T15:36:37.044Z,4.13
2018-03-11T15:41:40.540Z,2.20
2018-03-11T15:46:44.017Z,2.10
2018-03-11T15:51:50.000Z,2.33
2018-03-11T15:56:53.512Z,2.10
2018-03-11T16:01:57.748Z,2.05
2018-03-11T16:07:00.859Z,2.40
2018-03-11T16:12:04.702Z,2.17
2018-03-11T16:17:09.280Z,2.23
2018-03-11T16:22:13.717Z,2.30
2018-03-11T16:27:17.229Z,1.90
2018-03-11T16:32:21.816Z,2.47
2018-03-11T16:37:25.680Z,1.70
2018-03-11T16:42:29.544Z,2.37
2018-03-11T16:47:33.404Z,2.10
2018-03-11T16:52:38.009Z,2.00
2018-03-11T16:57:41.141Z,1.90
2018-03-11T17:02:45.605Z,2.73
2018-03-11T17:07:48.693Z,1.70
2018-03-11T17:12:52.588Z,1.53
2018-03-11T17:17:55.918Z,1.57
2018-03-11T17:23:00.927Z,1.70
2018-03-11T17:28:04.763Z,1.80
2018-03-11T17:33:07.859Z,3.10
2018-03-11T17:38:12.114Z,2.20
2018-03-11T17:43:15.972Z,3.33
2018-03-11T17:48:19.135Z,1.83
2018-03-11T17:53:22.176Z,1.90
2018-03-11T18:03:34.471Z,2.20
2018-03-11T18:08:37.596Z,2.20
2018-03-11T18:13:41.088Z,2.10
2018-03-11T18:18:44.629Z,2.80
2018-03-11T18:23:48.705Z,2.80
2018-03-11T18:28:52.185Z,2.43
2018-03-11T18:33:56.392Z,2.90
2018-03-11T18:39:00.461Z,4.53
2018-03-11T18:44:03.552Z,3.20
2018-03-11T18:49:08.017Z,3.47
2018-03-11T18:54:12.451Z,3.67
2018-03-11T18:59:15.539Z,3.90
2018-03-11T19:04:19.980Z,3.80
2018-03-11T19:09:24.568Z,3.30
2018-03-11T19:14:27.649Z,4.17
2018-03-11T19:19:31.496Z,3.93
2018-03-11T19:24:35.354Z,4.43
2018-03-11T19:29:38.495Z,4.63
2018-03-11T19:34:41.625Z,5.10
2018-03-11T19:39:44.761Z,6.70
2018-03-11T19:44:48.557Z,5.27
2018-03-11T19:49:51.651Z,5.63
2018-03-11T19:54:56.109Z,4.63
2018-03-11T19:59:59.244Z,5.00
2018-03-11T20:05:02.380Z,5.57
2018-03-11T20:10:07.036Z,4.90
2018-03-11T20:15:11.265Z,5.00
2018-03-11T20:20:15.493Z,6.97
2018-03-11T20:25:19.360Z,7.17
2018-03-11T20:30:22.869Z,6.43
2018-03-11T20:35:27.134Z,8.90
2018-03-11T20:40:30.228Z,7.20
2018-03-11T20:45:34.513Z,5.03
2018-03-11T20:50:37.556Z,4.63
2018-03-11T20:55:40.645Z,5.10
2018-03-11T21:00:43.720Z,4.97
2018-03-11T21:05:47.952Z,4.30
2018-03-11T21:10:51.117Z,4.25
2018-03-11T21:15:55.350Z,4.73
2018-03-11T21:20:59.272Z,4.70
2018-03-11T21:26:02.360Z,3.93
2018-03-11T21:31:05.493Z,4.50
2018-03-11T21:36:09.716Z,4.13
2018-03-11T21:41:13.944Z,4.90
2018-03-11T21:46:17.044Z,4.40
2018-03-11T21:51:20.121Z,5.10
2018-03-11T21:56:23.224Z,4.50
2018-03-11T22:01:26.317Z,4.70
2018-03-11T22:06:30.978Z,5.60
2018-03-11T22:11:35.294Z,5.72
2018-03-11T22:16:38.386Z,4.80
2018-03-11T22:21:41.582Z,5.23
2018-03-11T22:26:44.693Z,6.43
2018-03-11T22:31:49.652Z,4.73
2018-03-11T22:36:54.100Z,7.53
2018-03-11T22:41:57.196Z,9.67
2018-03-11T22:47:01.644Z,5.70
2018-03-11T22:52:04.761Z,5.83
2018-03-11T22:57:07.861Z,7.65
2018-03-11T23:02:11.083Z,5.32
2018-03-11T23:07:14.264Z,6.90
2018-03-11T23:12:18.593Z,7.20
2018-03-11T23:17:21.317Z,8.23
2018-03-11T23:22:24.423Z,5.03
2018-03-11T23:27:27.507Z,4.80
2018-03-11T23:32:30.596Z,5.20
2018-03-11T23:37:33.709Z,4.40
2018-03-11T23:42:37.184Z,4.63
2018-03-11T23:47:41.632Z,4.47
2018-03-11T23:52:44.766Z,4.00
2018-03-11T23:57:49.004Z,4.53
